Time;durP1;ratioP1;P1;durP2;ratioP2;P2;SDS_P1;SDS_P2;PMS_P1;PMS_P2;Temp;Humidity;BMP_temperature;BMP_pressure;BME280_temperature;BME280_humidity;BME280_pressure;Samples;Min_cycle;Max_cycle;Signal;HPM_P1;HPM_P2
2021/01/21 00:00:16;;;;;;;;;;;28.40;33.70;;;;;;5092229;28;19919;-41
2021/01/21 00:02:41;;;;;;;;;;;28.40;33.70;;;;;;5086126;28;20427;-42
2021/01/21 00:05:07;;;;;;;;;;;28.30;33.60;;;;;;5076808;28;20444;-43
2021/01/21 00:07:32;;;;;;;;;;;28.40;33.70;;;;;;5088280;28;19955;-42
2021/01/21 00:09:58;;;;;;;;;;;28.40;33.70;;;;;;5072755;28;19916;-42
2021/01/21 00:12:24;;;;;;;;;;;28.30;33.50;;;;;;5073160;28;19995;-43
2021/01/21 00:14:50;;;;;;;;;;;28.30;33.50;;;;;;5072830;28;20381;-42
2021/01/21 00:17:15;;;;;;;;;;;28.30;33.50;;;;;;5081673;28;19913;-42
2021/01/21 00:19:40;;;;;;;;;;;28.30;33.50;;;;;;5073308;28;20366;-41
2021/01/21 00:22:06;;;;;;;;;;;28.30;33.50;;;;;;5074696;28;19956;-44
2021/01/21 00:24:31;;;;;;;;;;;28.30;33.50;;;;;;5073038;28;19962;-42
2021/01/21 00:26:57;;;;;;;;;;;28.30;33.50;;;;;;5087830;28;19919;-41
2021/01/21 00:29:22;;;;;;;;;;;28.30;33.50;;;;;;5092591;28;19930;-41
2021/01/21 00:31:48;;;;;;;;;;;28.30;33.60;;;;;;5084836;28;19924;-42
2021/01/21 00:34:13;;;;;;;;;;;28.30;33.50;;;;;;5072885;28;19931;-42
2021/01/21 00:36:39;;;;;;;;;;;28.30;33.50;;;;;;5085565;28;19970;-41
2021/01/21 00:39:05;;;;;;;;;;;28.30;33.50;;;;;;5083243;28;19958;-42
2021/01/21 00:41:30;;;;;;;;;;;28.30;33.60;;;;;;5072653;28;19915;-42
2021/01/21 00:43:56;;;;;;;;;;;28.30;33.50;;;;;;5072796;28;19913;-42
2021/01/21 00:46:21;;;;;;;;;;;28.30;33.50;;;;;;5073532;28;19999;-41
2021/01/21 00:48:47;;;;;;;;;;;28.30;33.50;;;;;;5072776;28;19916;-41
2021/01/21 00:51:12;;;;;;;;;;;28.30;33.50;;;;;;5075087;28;20296;-41
2021/01/21 00:53:38;;;;;;;;;;;28.30;33.50;;;;;;5077454;28;19916;-42
2021/01/21 00:56:03;;;;;;;;;;;28.30;33.40;;;;;;5093248;28;20404;-42
2021/01/21 00:58:29;;;;;;;;;;;28.30;33.50;;;;;;5085068;28;19916;-43
2021/01/21 01:00:54;;;;;;;;;;;28.30;33.50;;;;;;5074741;28;19962;-41
2021/01/21 01:03:20;;;;;;;;;;;28.30;33.50;;;;;;5092697;28;20357;-42
2021/01/21 01:05:45;;;;;;;;;;;28.30;33.50;;;;;;5090699;28;19912;-42
2021/01/21 01:08:11;;;;;;;;;;;28.30;33.50;;;;;;5087183;28;19912;-42
2021/01/21 01:10:36;;;;;;;;;;;28.30;33.50;;;;;;5096727;28;19920;-42
2021/01/21 01:13:02;;;;;;;;;;;28.30;33.40;;;;;;5096467;28;19916;-42
2021/01/21 01:15:29;;;;;;;;;;;28.30;33.40;;;;;;5093748;28;19916;-41
2021/01/21 01:17:55;;;;;;;;;;;28.30;33.50;;;;;;5076335;28;20347;-41
2021/01/21 01:20:20;;;;;;;;;;;28.30;33.50;;;;;;5077809;28;19909;-42
2021/01/21 01:22:49;;;;;;;;;;;28.30;33.50;;;;;;5077395;28;20293;-41
2021/01/21 01:25:15;;;;;;;;;;;28.30;33.50;;;;;;5076974;28;19956;-41
2021/01/21 01:27:41;;;;;;;;;;;28.20;33.40;;;;;;5088596;28;20397;-41
2021/01/21 01:30:06;;;;;;;;;;;28.30;33.40;;;;;;5077045;28;20336;-41
2021/01/21 01:32:32;;;;;;;;;;;28.30;33.40;;;;;;5077887;28;20251;-41
2021/01/21 01:34:57;;;;;;;;;;;28.20;33.40;;;;;;5093816;28;19908;-42
2021/01/21 01:37:23;;;;;;;;;;;28.20;33.30;;;;;;5079889;28;19913;-42
2021/01/21 01:39:48;;;;;;;;;;;28.20;33.30;;;;;;5079643;28;19908;-42
2021/01/21 01:42:14;;;;;;;;;;;28.20;33.30;;;;;;5080888;28;20228;-42
2021/01/21 01:44:39;;;;;;;;;;;28.20;33.30;;;;;;5096218;28;19941;-42
2021/01/21 01:47:05;;;;;;;;;;;28.20;33.30;;;;;;5095984;28;20377;-41
2021/01/21 01:49:30;;;;;;;;;;;28.20;33.30;;;;;;5095728;28;19916;-42
2021/01/21 01:51:55;;;;;;;;;;;28.20;33.30;;;;;;5069255;28;20281;-42
2021/01/21 01:54:21;;;;;;;;;;;28.20;33.30;;;;;;5080656;28;19920;-43
2021/01/21 01:56:47;;;;;;;;;;;28.20;33.40;;;;;;5087982;28;19997;-42
2021/01/21 01:59:12;;;;;;;;;;;28.20;33.40;;;;;;5095469;28;19916;-42
2021/01/21 02:01:37;;;;;;;;;;;28.20;33.30;;;;;;5088415;28;19908;-42
2021/01/21 02:04:03;;;;;;;;;;;28.20;33.30;;;;;;5065320;28;19912;-44
2021/01/21 02:06:28;;;;;;;;;;;28.20;33.30;;;;;;5083447;28;19909;-43
2021/01/21 02:08:55;;;;;;;;;;;28.20;33.20;;;;;;5075188;28;19912;-42
2021/01/21 02:11:24;;;;;;;;;;;28.20;33.30;;;;;;5088912;28;19919;-44
2021/01/21 02:13:51;;;;;;;;;;;28.20;33.30;;;;;;5095561;28;20367;-46
2021/01/21 02:16:21;;;;;;;;;;;28.20;33.30;;;;;;5060527;28;19912;-47
2021/01/21 02:18:48;;;;;;;;;;;28.20;33.30;;;;;;5074628;28;19955;-47
2021/01/21 02:21:17;;;;;;;;;;;28.20;33.20;;;;;;5060374;28;19912;-48
2021/01/21 02:24:01;;;;;;;;;;;28.20;33.30;;;;;;5075064;28;20333;-49
2021/01/21 02:26:30;;;;;;;;;;;28.20;33.20;;;;;;5085449;28;19963;-49
2021/01/21 02:29:09;;;;;;;;;;;28.20;33.20;;;;;;5075213;28;19924;-46
2021/01/21 02:31:37;;;;;;;;;;;28.20;33.20;;;;;;5093292;28;20366;-47
2021/01/21 02:34:32;;;;;;;;;;;28.20;33.30;;;;;;5093107;28;19915;-48
2021/01/21 02:36:58;;;;;;;;;;;28.20;33.20;;;;;;5012007;28;19956;-49
2021/01/21 02:39:23;;;;;;;;;;;28.20;33.20;;;;;;5075496;28;19912;-42
2021/01/21 02:41:49;;;;;;;;;;;28.20;33.10;;;;;;5065045;28;19912;-42
2021/01/21 02:44:14;;;;;;;;;;;28.20;33.00;;;;;;5095071;28;19954;-42
2021/01/21 02:46:40;;;;;;;;;;;28.20;33.00;;;;;;5091236;28;19916;-42
2021/01/21 02:49:06;;;;;;;;;;;28.20;33.00;;;;;;5076701;28;19912;-43
2021/01/21 02:51:41;;;;;;;;;;;28.20;33.10;;;;;;5084825;28;19916;-42
2021/01/21 02:54:13;;;;;;;;;;;28.20;33.10;;;;;;5074523;28;19924;-42
2021/01/21 02:56:38;;;;;;;;;;;28.20;33.20;;;;;;5074542;28;19908;-42
2021/01/21 02:59:04;;;;;;;;;;;28.20;33.20;;;;;;5056281;28;19909;-42
2021/01/21 03:01:30;;;;;;;;;;;28.20;33.20;;;;;;5086065;28;19982;-42
2021/01/21 03:03:55;;;;;;;;;;;28.20;33.20;;;;;;5094235;28;19924;-42
2021/01/21 03:06:21;;;;;;;;;;;28.20;33.20;;;;;;5070154;28;19916;-42
2021/01/21 03:08:46;;;;;;;;;;;28.20;33.20;;;;;;5076495;28;19977;-42
2021/01/21 03:11:12;;;;;;;;;;;28.10;33.10;;;;;;5084879;28;19924;-42
2021/01/21 03:13:41;;;;;;;;;;;28.10;33.20;;;;;;5080005;28;19966;-42
2021/01/21 03:16:06;;;;;;;;;;;28.20;33.20;;;;;;5087643;28;19926;-42
2021/01/21 03:18:32;;;;;;;;;;;28.10;33.20;;;;;;5094335;28;20002;-42
2021/01/21 03:20:58;;;;;;;;;;;28.20;33.20;;;;;;5091915;28;19998;-42
2021/01/21 03:23:23;;;;;;;;;;;28.20;33.10;;;;;;5077635;28;19939;-42
2021/01/21 03:25:48;;;;;;;;;;;28.10;33.10;;;;;;5074291;28;20422;-42
2021/01/21 03:28:14;;;;;;;;;;;28.20;33.20;;;;;;5073500;28;19963;-42
2021/01/21 03:30:39;;;;;;;;;;;28.20;33.20;;;;;;5085030;28;19920;-42
2021/01/21 03:33:05;;;;;;;;;;;28.20;33.20;;;;;;5093897;28;19912;-42
2021/01/21 03:35:30;;;;;;;;;;;28.20;33.20;;;;;;5090769;28;19912;-42
2021/01/21 03:37:56;;;;;;;;;;;28.20;33.10;;;;;;5073894;28;19924;-42
2021/01/21 03:40:21;;;;;;;;;;;28.20;33.80;;;;;;5088351;28;20328;-42
2021/01/21 03:42:47;;;;;;;;;;;28.10;33.20;;;;;;5092443;28;19978;-42
2021/01/21 03:45:12;;;;;;;;;;;28.20;33.20;;;;;;5093887;28;19945;-42
2021/01/21 03:47:38;;;;;;;;;;;28.10;33.10;;;;;;5093682;28;19965;-42
2021/01/21 03:50:04;;;;;;;;;;;28.20;33.10;;;;;;5093405;28;19922;-42
2021/01/21 03:52:29;;;;;;;;;;;28.10;33.00;;;;;;5074441;28;19920;-42
2021/01/21 03:54:55;;;;;;;;;;;28.20;33.00;;;;;;5072972;28;19948;-42
2021/01/21 03:57:20;;;;;;;;;;;28.20;33.00;;;;;;5074066;28;19908;-42
2021/01/21 03:59:45;;;;;;;;;;;28.20;32.90;;;;;;5073288;28;20414;-42
2021/01/21 04:02:11;;;;;;;;;;;28.20;33.00;;;;;;5090121;28;20409;-43
2021/01/21 04:04:36;;;;;;;;;;;28.20;32.90;;;;;;5093263;28;19912;-42
2021/01/21 04:07:02;;;;;;;;;;;28.20;32.90;;;;;;5087271;28;19963;-42
2021/01/21 04:09:27;;;;;;;;;;;28.20;32.90;;;;;;5093413;28;19916;-42
2021/01/21 04:11:53;;;;;;;;;;;28.20;32.90;;;;;;5073358;28;20274;-42
2021/01/21 04:14:18;;;;;;;;;;;28.20;32.90;;;;;;5081046;28;19912;-42
2021/01/21 04:16:44;;;;;;;;;;;28.20;32.90;;;;;;5093217;28;20315;-42
2021/01/21 04:19:09;;;;;;;;;;;28.10;32.80;;;;;;5093022;28;19908;-42
2021/01/21 04:21:35;;;;;;;;;;;28.20;32.80;;;;;;5087987;28;19912;-42
2021/01/21 04:24:00;;;;;;;;;;;28.20;32.90;;;;;;5074935;28;20273;-42
2021/01/21 04:26:26;;;;;;;;;;;28.20;32.90;;;;;;5083473;28;19916;-42
2021/01/21 04:28:52;;;;;;;;;;;28.20;32.90;;;;;;5092783;28;20386;-42
2021/01/21 04:31:17;;;;;;;;;;;28.20;32.80;;;;;;5091369;28;19958;-43
2021/01/21 04:33:43;;;;;;;;;;;28.10;32.80;;;;;;5092898;28;20431;-43
2021/01/21 04:36:08;;;;;;;;;;;28.10;32.80;;;;;;5087469;28;19912;-42
2021/01/21 04:38:34;;;;;;;;;;;28.10;32.80;;;;;;5074707;28;19936;-42
2021/01/21 04:41:00;;;;;;;;;;;28.10;32.80;;;;;;5072094;28;19909;-43
2021/01/21 04:43:25;;;;;;;;;;;28.10;33.10;;;;;;5072745;28;20362;-42
2021/01/21 04:45:51;;;;;;;;;;;28.10;32.80;;;;;;5092797;28;19920;-43
2021/01/21 04:48:16;;;;;;;;;;;28.10;32.80;;;;;;5074992;28;20425;-42
2021/01/21 04:50:42;;;;;;;;;;;28.20;32.80;;;;;;5069787;28;20397;-43
2021/01/21 04:53:07;;;;;;;;;;;28.20;32.80;;;;;;5073590;28;19912;-42
2021/01/21 04:55:33;;;;;;;;;;;28.10;32.60;;;;;;5057880;28;19967;-42
2021/01/21 04:57:59;;;;;;;;;;;28.20;32.70;;;;;;5074839;28;20289;-43
2021/01/21 05:00:25;;;;;;;;;;;28.20;32.80;;;;;;5090293;28;19908;-42
2021/01/21 05:02:50;;;;;;;;;;;28.20;32.80;;;;;;5072358;28;19913;-44
2021/01/21 05:05:16;;;;;;;;;;;28.20;32.70;;;;;;5055357;28;19915;-43
2021/01/21 05:07:41;;;;;;;;;;;28.20;32.70;;;;;;5084910;28;19983;-42
2021/01/21 05:10:07;;;;;;;;;;;28.20;32.80;;;;;;5054478;28;19924;-42
2021/01/21 05:12:33;;;;;;;;;;;28.10;32.80;;;;;;5082443;28;19991;-45
2021/01/21 05:14:58;;;;;;;;;;;28.20;32.80;;;;;;5077574;28;19926;-43
2021/01/21 05:17:24;;;;;;;;;;;28.20;32.80;;;;;;5092334;28;19923;-42
2021/01/21 05:19:52;;;;;;;;;;;28.10;32.70;;;;;;5056148;28;19934;-45
2021/01/21 05:22:17;;;;;;;;;;;28.10;32.70;;;;;;5073119;28;20403;-46
2021/01/21 05:24:43;;;;;;;;;;;28.10;32.70;;;;;;5074044;28;19909;-44
2021/01/21 05:27:09;;;;;;;;;;;28.10;32.60;;;;;;5082867;28;19916;-42
2021/01/21 05:29:34;;;;;;;;;;;28.10;32.70;;;;;;5071903;28;20011;-44
2021/01/21 05:32:00;;;;;;;;;;;28.10;32.70;;;;;;5054763;28;19962;-45
2021/01/21 05:34:25;;;;;;;;;;;28.10;32.70;;;;;;5092557;28;20372;-46
2021/01/21 05:36:51;;;;;;;;;;;28.10;32.60;;;;;;5080538;28;19916;-42
2021/01/21 05:39:16;;;;;;;;;;;28.10;32.60;;;;;;5077886;28;20011;-49
2021/01/21 05:41:42;;;;;;;;;;;28.10;32.70;;;;;;5071778;28;19914;-50
2021/01/21 05:44:07;;;;;;;;;;;28.10;32.60;;;;;;5072148;28;19975;-47
2021/01/21 05:46:33;;;;;;;;;;;28.10;32.70;;;;;;5083089;28;20358;-44
2021/01/21 05:48:59;;;;;;;;;;;28.10;32.60;;;;;;5091444;28;20002;-50
2021/01/21 05:51:24;;;;;;;;;;;28.10;32.60;;;;;;5081561;28;20366;-47
2021/01/21 05:53:53;;;;;;;;;;;28.10;32.60;;;;;;5093712;28;19934;-45
2021/01/21 05:56:19;;;;;;;;;;;28.10;32.60;;;;;;5093875;28;19916;-43
2021/01/21 05:58:53;;;;;;;;;;;28.10;32.50;;;;;;5095984;28;19950;-43
2021/01/21 06:01:23;;;;;;;;;;;28.10;32.60;;;;;;5076241;28;19912;-42
2021/01/21 06:03:48;;;;;;;;;;;28.10;32.60;;;;;;5075110;28;19909;-42
2021/01/21 06:06:15;;;;;;;;;;;28.10;32.60;;;;;;5066055;28;20007;-42
2021/01/21 06:08:41;;;;;;;;;;;28.10;32.60;;;;;;5087203;28;19999;-42
2021/01/21 06:11:09;;;;;;;;;;;28.10;32.60;;;;;;5095330;28;20011;-42
2021/01/21 06:13:41;;;;;;;;;;;28.00;32.40;;;;;;5076701;28;19920;-42
2021/01/21 06:16:06;;;;;;;;;;;28.10;32.60;;;;;;5078657;28;19912;-42
2021/01/21 06:18:32;;;;;;;;;;;28.10;32.50;;;;;;5075113;28;19954;-42
2021/01/21 06:20:58;;;;;;;;;;;28.00;32.50;;;;;;5088994;28;19955;-44
2021/01/21 06:23:24;;;;;;;;;;;28.00;32.50;;;;;;5095536;28;20350;-42
2021/01/21 06:25:50;;;;;;;;;;;28.10;32.50;;;;;;5086716;28;20003;-42
2021/01/21 06:28:15;;;;;;;;;;;28.10;32.50;;;;;;5077013;28;20353;-42
2021/01/21 06:30:41;;;;;;;;;;;28.10;32.50;;;;;;5072142;28;19974;-43
2021/01/21 06:33:08;;;;;;;;;;;28.10;32.50;;;;;;5066540;28;19916;-42
2021/01/21 06:35:43;;;;;;;;;;;28.10;32.50;;;;;;5074994;28;19943;-42
2021/01/21 06:38:10;;;;;;;;;;;28.10;32.90;;;;;;5074687;28;19931;-43
2021/01/21 06:40:35;;;;;;;;;;;28.10;32.50;;;;;;5094777;28;19912;-66
2021/01/21 06:43:03;;;;;;;;;;;28.10;32.50;;;;;;5082116;28;20007;-66
2021/01/21 06:45:29;;;;;;;;;;;28.00;32.30;;;;;;5075923;28;20002;-66
2021/01/21 06:47:54;;;;;;;;;;;28.00;32.50;;;;;;5094368;28;19919;-66
2021/01/21 06:50:20;;;;;;;;;;;28.00;32.40;;;;;;5076491;28;19920;-67
2021/01/21 06:52:45;;;;;;;;;;;28.10;32.50;;;;;;5094589;28;19912;-66
2021/01/21 06:55:11;;;;;;;;;;;28.00;32.50;;;;;;5073869;28;19916;-66
2021/01/21 06:57:36;;;;;;;;;;;28.10;32.50;;;;;;5074557;28;20330;-66
2021/01/21 07:00:05;;;;;;;;;;;28.10;32.50;;;;;;5074351;28;19909;-66
2021/01/21 07:02:40;;;;;;;;;;;28.10;32.50;;;;;;5075818;28;20282;-64
2021/01/21 07:05:08;;;;;;;;;;;27.90;31.80;;;;;;5091410;28;19919;-64
2021/01/21 07:07:56;;;;;;;;;;;28.00;32.00;;;;;;5092468;28;19999;-55
2021/01/21 07:10:29;;;;;;;;;;;28.00;32.20;;;;;;5092466;28;19942;-59
2021/01/21 07:12:54;;;;;;;;;;;27.10;27.10;;;;;;5094422;28;19908;-48
2021/01/21 07:15:39;;;;;;;;;;;23.30;26.70;;;;;;5094080;28;19908;-58
2021/01/21 07:18:05;;;;;;;;;;;23.20;27.00;;;;;;5073946;28;19913;-47
2021/01/21 07:20:31;;;;;;;;;;;24.00;29.90;;;;;;5073907;28;19978;-50
2021/01/21 07:22:58;;;;;;;;;;;25.00;29.60;;;;;;5087011;28;19951;-53
2021/01/21 07:25:29;;;;;;;;;;;26.00;28.90;;;;;;5070807;28;19913;-49
2021/01/21 07:27:54;;;;;;;;;;;26.90;28.20;;;;;;5073453;28;19912;-53
2021/01/21 07:30:23;;;;;;;;;;;27.70;27.80;;;;;;5074160;28;19928;-62
2021/01/21 07:32:49;;;;;;;;;;;28.20;27.90;;;;;;5094035;28;20003;-61
2021/01/21 07:35:32;;;;;;;;;;;28.70;27.80;;;;;;5092537;28;19987;-62
2021/01/21 07:37:58;;;;;;;;;;;29.10;27.60;;;;;;5093154;28;19956;-63
2021/01/21 07:40:42;;;;;;;;;;;29.50;27.60;;;;;;5090309;28;19944;-60
2021/01/21 07:43:07;;;;;;;;;;;29.80;27.60;;;;;;5082283;28;19966;-63
2021/01/21 07:45:33;;;;;;;;;;;30.20;27.60;;;;;;5083972;28;19920;-60
2021/01/21 07:48:17;;;;;;;;;;;30.40;27.70;;;;;;5074292;28;19921;-58
2021/01/21 07:50:42;;;;;;;;;;;30.60;27.70;;;;;;5081524;28;19919;-64
2021/01/21 07:53:17;;;;;;;;;;;30.80;27.90;;;;;;5060497;28;20388;-64
2021/01/21 07:55:43;;;;;;;;;;;31.00;28.00;;;;;;5079875;28;19961;-61
2021/01/21 07:58:24;;;;;;;;;;;31.20;28.20;;;;;;5056868;28;19916;-60
2021/01/21 08:00:51;;;;;;;;;;;31.30;28.20;;;;;;5073648;28;19908;-58
2021/01/21 08:03:26;;;;;;;;;;;31.40;28.40;;;;;;5074423;28;19915;-62
2021/01/21 08:06:00;;;;;;;;;;;31.50;28.40;;;;;;5073102;28;19912;-62
2021/01/21 08:08:26;;;;;;;;;;;31.60;28.50;;;;;;5073576;28;19909;-62
2021/01/21 08:10:51;;;;;;;;;;;31.70;28.60;;;;;;5076531;28;19931;-64
2021/01/21 08:13:17;;;;;;;;;;;31.80;28.70;;;;;;5054907;28;20325;-60
2021/01/21 08:15:44;;;;;;;;;;;31.90;28.70;;;;;;5072343;28;19965;-57
2021/01/21 08:18:14;;;;;;;;;;;31.70;27.10;;;;;;5055243;28;19908;-70
2021/01/21 08:20:40;;;;;;;;;;;31.30;27.20;;;;;;5075757;28;20003;-63
2021/01/21 08:23:06;;;;;;;;;;;31.00;27.90;;;;;;5072725;28;20381;-65
2021/01/21 08:25:32;;;;;;;;;;;30.80;28.30;;;;;;5072663;28;19995;-63
2021/01/21 08:27:57;;;;;;;;;;;30.60;28.60;;;;;;5080142;28;19916;-67
2021/01/21 08:30:24;;;;;;;;;;;30.40;28.80;;;;;;5092538;28;19958;-66
2021/01/21 08:32:53;;;;;;;;;;;30.30;29.10;;;;;;5078855;28;19920;-72
2021/01/21 08:35:23;;;;;;;;;;;30.20;29.20;;;;;;5072915;28;19915;-64
2021/01/21 08:37:48;;;;;;;;;;;30.10;29.50;;;;;;5054338;28;20298;-65
2021/01/21 08:40:14;;;;;;;;;;;30.00;29.60;;;;;;5087262;28;19923;-73
2021/01/21 08:42:39;;;;;;;;;;;29.90;29.70;;;;;;5090939;28;19913;-63
2021/01/21 08:45:05;;;;;;;;;;;29.90;29.90;;;;;;5075465;28;20334;-65
2021/01/21 08:47:40;;;;;;;;;;;29.80;30.00;;;;;;5081972;28;19920;-66
2021/01/21 08:50:05;;;;;;;;;;;29.80;30.00;;;;;;5092459;28;19928;-66
2021/01/21 08:52:31;;;;;;;;;;;29.90;30.10;;;;;;5092897;28;19986;-58
2021/01/21 08:54:56;;;;;;;;;;;29.90;30.60;;;;;;5092605;28;19915;-52
2021/01/21 08:57:24;;;;;;;;;;;29.80;30.60;;;;;;5088680;28;19912;-68
2021/01/21 08:59:50;;;;;;;;;;;29.70;30.50;;;;;;5091247;28;20328;-57
2021/01/21 09:02:35;;;;;;;;;;;29.70;30.60;;;;;;5074758;28;19954;-55
2021/01/21 09:05:04;;;;;;;;;;;29.70;30.50;;;;;;5072231;28;19978;-67
2021/01/21 09:07:29;;;;;;;;;;;29.80;30.60;;;;;;5073319;28;20397;-68
2021/01/21 09:09:55;;;;;;;;;;;29.80;30.50;;;;;;5084236;28;19924;-67
2021/01/21 09:12:24;;;;;;;;;;;29.90;30.50;;;;;;5087405;28;20328;-73
2021/01/21 09:15:03;;;;;;;;;;;29.90;30.30;;;;;;5092875;28;19957;-73
2021/01/21 09:17:30;;;;;;;;;;;30.00;30.20;;;;;;5092190;28;20420;-75
2021/01/21 09:19:55;;;;;;;;;;;30.00;30.30;;;;;;5092491;28;19919;-68
2021/01/21 09:22:27;;;;;;;;;;;30.00;30.30;;;;;;5086074;28;19913;-64
2021/01/21 09:24:57;;;;;;;;;;;30.00;30.30;;;;;;5072316;28;19909;-64
2021/01/21 09:27:22;;;;;;;;;;;30.00;30.40;;;;;;5083087;28;19924;-64
2021/01/21 09:29:48;;;;;;;;;;;30.00;30.40;;;;;;5084252;28;19920;-69
2021/01/21 09:32:15;;;;;;;;;;;30.00;30.50;;;;;;5089801;28;19923;-71
2021/01/21 09:34:55;;;;;;;;;;;30.10;30.50;;;;;;5096399;28;20277;-67
2021/01/21 09:37:21;;;;;;;;;;;30.00;30.40;;;;;;5090252;28;19974;-71
2021/01/21 09:39:46;;;;;;;;;;;30.10;30.40;;;;;;5084935;28;19956;-68
2021/01/21 09:42:12;;;;;;;;;;;30.20;30.50;;;;;;5094467;28;19916;-68
2021/01/21 09:44:37;;;;;;;;;;;30.20;31.00;;;;;;5077309;28;19913;-61
2021/01/21 09:47:03;;;;;;;;;;;30.20;30.40;;;;;;5076813;28;20335;-63
2021/01/21 09:49:28;;;;;;;;;;;30.30;30.50;;;;;;5075453;28;19909;-69
2021/01/21 09:51:54;;;;;;;;;;;30.20;30.40;;;;;;5077349;28;19918;-63
2021/01/21 09:54:19;;;;;;;;;;;30.20;30.70;;;;;;5095669;28;20360;-75
2021/01/21 09:56:45;;;;;;;;;;;30.10;30.70;;;;;;5094923;28;19958;-60
2021/01/21 09:59:11;;;;;;;;;;;30.00;30.60;;;;;;5090470;28;19912;-78
2021/01/21 10:01:36;;;;;;;;;;;30.10;30.70;;;;;;5080713;28;19939;-65
2021/01/21 10:04:02;;;;;;;;;;;30.10;30.60;;;;;;5081044;28;19911;-65
2021/01/21 10:06:27;;;;;;;;;;;30.10;30.70;;;;;;5095479;28;19908;-64
2021/01/21 10:08:53;;;;;;;;;;;30.10;30.60;;;;;;5095795;28;19908;-65
2021/01/21 10:11:18;;;;;;;;;;;30.10;30.70;;;;;;5095321;28;19916;-62
2021/01/21 10:13:44;;;;;;;;;;;30.10;30.70;;;;;;5087666;28;19920;-63
2021/01/21 10:16:09;;;;;;;;;;;30.10;30.80;;;;;;5079874;28;19969;-70
2021/01/21 10:18:35;;;;;;;;;;;30.10;30.70;;;;;;5075145;28;19915;-79
2021/01/21 10:21:00;;;;;;;;;;;30.20;30.70;;;;;;5075350;28;20370;-73
2021/01/21 10:23:26;;;;;;;;;;;30.10;30.60;;;;;;5089816;28;20372;-70
2021/01/21 10:25:51;;;;;;;;;;;30.10;30.70;;;;;;5095143;28;19939;-73
2021/01/21 10:28:17;;;;;;;;;;;30.10;30.70;;;;;;5081277;28;19924;-72
2021/01/21 10:30:42;;;;;;;;;;;30.10;30.70;;;;;;5084526;28;20011;-69
2021/01/21 10:33:07;;;;;;;;;;;30.10;30.70;;;;;;5089911;28;19915;-65
2021/01/21 10:35:33;;;;;;;;;;;30.10;30.70;;;;;;5077288;28;19913;-76
2021/01/21 10:37:58;;;;;;;;;;;30.10;30.80;;;;;;5085563;28;20014;-71
2021/01/21 10:40:24;;;;;;;;;;;30.10;30.80;;;;;;5094496;28;20282;-73
2021/01/21 10:42:49;;;;;;;;;;;30.10;30.90;;;;;;5085020;28;19912;-68
2021/01/21 10:45:15;;;;;;;;;;;30.20;30.90;;;;;;5087735;28;19977;-73
2021/01/21 10:47:40;;;;;;;;;;;30.20;30.90;;;;;;5094162;28;19919;-52
2021/01/21 10:50:06;;;;;;;;;;;30.20;30.90;;;;;;5074338;28;19924;-53
2021/01/21 10:52:32;;;;;;;;;;;30.10;30.80;;;;;;5076804;28;19912;-54
2021/01/21 10:54:59;;;;;;;;;;;30.10;30.80;;;;;;5074577;28;19954;-65
2021/01/21 10:57:24;;;;;;;;;;;30.10;30.90;;;;;;5080461;28;20366;-70
2021/01/21 10:59:50;;;;;;;;;;;30.10;31.30;;;;;;5094683;28;19932;-53
2021/01/21 11:02:15;;;;;;;;;;;30.10;31.60;;;;;;5077281;28;19916;-64
2021/01/21 11:04:41;;;;;;;;;;;30.20;32.50;;;;;;5083644;28;19912;-70
2021/01/21 11:07:06;;;;;;;;;;;30.20;32.40;;;;;;5090407;28;20002;-64
2021/01/21 11:09:35;;;;;;;;;;;30.30;32.50;;;;;;5084252;28;20303;-72
2021/01/21 11:12:02;;;;;;;;;;;30.30;32.30;;;;;;5090963;28;20019;-72
2021/01/21 11:14:27;;;;;;;;;;;30.30;32.30;;;;;;5075072;28;19927;-68
2021/01/21 11:16:53;;;;;;;;;;;30.30;32.50;;;;;;5078106;28;19912;-70
2021/01/21 11:19:18;;;;;;;;;;;30.40;32.40;;;;;;5094396;28;19915;-51
2021/01/21 11:21:44;;;;;;;;;;;30.30;32.40;;;;;;5089357;28;20350;-56
2021/01/21 11:24:09;;;;;;;;;;;30.00;28.10;;;;;;5094003;28;19908;-60
2021/01/21 11:26:35;;;;;;;;;;;29.70;28.70;;;;;;5094058;28;19908;-60
2021/01/21 11:29:00;;;;;;;;;;;29.70;28.70;;;;;;5073472;28;19920;-76
2021/01/21 11:31:26;;;;;;;;;;;29.60;28.60;;;;;;5074056;28;19920;-66
2021/01/21 11:33:51;;;;;;;;;;;29.60;28.60;;;;;;5073797;28;19917;-74
2021/01/21 11:36:17;;;;;;;;;;;29.60;28.40;;;;;;5088736;28;19966;-75
2021/01/21 11:38:42;;;;;;;;;;;29.60;28.80;;;;;;5076651;28;20263;-71
2021/01/21 11:41:08;;;;;;;;;;;29.60;28.50;;;;;;5073583;28;20290;-66
2021/01/21 11:43:33;;;;;;;;;;;29.60;27.80;;;;;;5089203;28;20384;-67
2021/01/21 11:45:59;;;;;;;;;;;29.70;29.40;;;;;;5080160;28;19916;-66
2021/01/21 11:48:24;;;;;;;;;;;29.70;29.60;;;;;;5091704;28;19916;-65
2021/01/21 11:50:50;;;;;;;;;;;29.80;29.60;;;;;;5093108;28;19995;-71
2021/01/21 11:53:15;;;;;;;;;;;29.90;29.80;;;;;;5088987;28;19918;-61
2021/01/21 11:55:41;;;;;;;;;;;30.00;29.90;;;;;;5093391;28;20629;-69
2021/01/21 11:58:06;;;;;;;;;;;30.00;30.00;;;;;;5093091;28;20272;-62
2021/01/21 12:00:32;;;;;;;;;;;30.00;30.00;;;;;;5080193;28;19924;-64
2021/01/21 12:02:57;;;;;;;;;;;30.00;30.00;;;;;;5082931;28;19923;-66
2021/01/21 12:05:23;;;;;;;;;;;30.00;30.20;;;;;;5093157;28;20003;-70
2021/01/21 12:07:48;;;;;;;;;;;30.10;30.30;;;;;;5093242;28;20285;-69
2021/01/21 12:10:18;;;;;;;;;;;30.10;30.40;;;;;;5093074;28;19961;-55
2021/01/21 12:12:43;;;;;;;;;;;30.10;30.50;;;;;;5091393;28;19912;-58
2021/01/21 12:15:09;;;;;;;;;;;30.10;30.50;;;;;;5086958;28;19919;-65
2021/01/21 12:17:35;;;;;;;;;;;30.00;30.60;;;;;;5086063;28;20033;-56
2021/01/21 12:20:00;;;;;;;;;;;30.00;31.00;;;;;;5072749;28;20369;-65
2021/01/21 12:22:26;;;;;;;;;;;29.80;31.60;;;;;;5080992;28;19912;-70
2021/01/21 12:24:51;;;;;;;;;;;29.90;31.60;;;;;;5093342;28;20345;-66
2021/01/21 12:27:17;;;;;;;;;;;30.00;31.50;;;;;;5074707;28;20011;-64
2021/01/21 12:29:42;;;;;;;;;;;30.00;31.70;;;;;;5073023;28;20290;-62
2021/01/21 12:32:08;;;;;;;;;;;30.10;31.70;;;;;;5073904;28;19920;-63
2021/01/21 12:34:33;;;;;;;;;;;30.20;31.60;;;;;;5072661;28;20350;-68
2021/01/21 12:36:59;;;;;;;;;;;30.30;31.60;;;;;;5075356;28;19913;-66
2021/01/21 12:39:24;;;;;;;;;;;30.40;31.70;;;;;;5079910;28;19913;-67
2021/01/21 12:41:50;;;;;;;;;;;30.40;31.70;;;;;;5073656;28;19912;-66
2021/01/21 12:44:16;;;;;;;;;;;30.50;31.80;;;;;;5077697;28;19919;-68
2021/01/21 12:46:41;;;;;;;;;;;30.50;31.90;;;;;;5093033;28;19939;-66
2021/01/21 12:49:07;;;;;;;;;;;30.50;31.90;;;;;;5092867;28;19916;-68
2021/01/21 12:51:32;;;;;;;;;;;30.60;32.00;;;;;;5091769;28;19920;-64
2021/01/21 12:53:58;;;;;;;;;;;30.60;32.10;;;;;;5073901;28;19921;-64
2021/01/21 12:56:24;;;;;;;;;;;30.60;32.20;;;;;;5072726;28;20324;-63
2021/01/21 12:58:49;;;;;;;;;;;30.60;32.20;;;;;;5072749;28;19913;-65
2021/01/21 13:01:15;;;;;;;;;;;30.60;32.30;;;;;;5072712;28;19923;-76
2021/01/21 13:03:40;;;;;;;;;;;30.60;32.30;;;;;;5093076;28;19912;-69
2021/01/21 13:06:06;;;;;;;;;;;30.60;32.50;;;;;;5091477;28;19964;-68
2021/01/21 13:08:31;;;;;;;;;;;30.60;32.50;;;;;;5088597;28;19995;-66
2021/01/21 13:10:57;;;;;;;;;;;30.60;32.60;;;;;;5096563;28;19920;-63
2021/01/21 13:13:25;;;;;;;;;;;30.60;32.60;;;;;;5094099;28;19962;-72
2021/01/21 13:15:51;;;;;;;;;;;30.60;32.60;;;;;;5078572;28;20263;-68
2021/01/21 13:18:16;;;;;;;;;;;30.60;32.90;;;;;;5076456;28;19962;-66
2021/01/21 13:20:42;;;;;;;;;;;30.60;33.00;;;;;;5082170;28;19966;-66
2021/01/21 13:23:07;;;;;;;;;;;30.60;33.10;;;;;;5096470;28;19942;-64
2021/01/21 13:25:33;;;;;;;;;;;30.60;33.00;;;;;;5096291;28;19956;-64
2021/01/21 13:27:59;;;;;;;;;;;30.60;33.20;;;;;;5091513;28;19916;-67
2021/01/21 13:30:25;;;;;;;;;;;30.60;33.40;;;;;;5096006;28;19927;-67
2021/01/21 13:32:50;;;;;;;;;;;30.60;33.50;;;;;;5086127;28;20315;-59
2021/01/21 13:35:16;;;;;;;;;;;30.50;26.50;;;;;;5081965;28;20015;-67
2021/01/21 13:37:41;;;;;;;;;;;29.60;27.40;;;;;;5087570;28;19912;-66
2021/01/21 13:40:07;;;;;;;;;;;29.20;28.60;;;;;;5075943;28;19970;-68
2021/01/21 13:42:32;;;;;;;;;;;29.40;29.50;;;;;;5077253;28;19913;-66
2021/01/21 13:44:58;;;;;;;;;;;29.60;29.60;;;;;;5091622;28;19981;-70
2021/01/21 13:47:24;;;;;;;;;;;29.70;29.90;;;;;;5096335;28;20002;-69
2021/01/21 13:49:49;;;;;;;;;;;29.90;30.10;;;;;;5092592;28;20308;-71
2021/01/21 13:52:14;;;;;;;;;;;30.00;30.30;;;;;;5080954;28;19916;-70
2021/01/21 13:54:40;;;;;;;;;;;30.10;30.60;;;;;;5095870;28;19952;-64
2021/01/21 13:57:05;;;;;;;;;;;30.10;30.80;;;;;;5094262;28;19915;-66
2021/01/21 13:59:31;;;;;;;;;;;30.20;31.00;;;;;;5076245;28;20436;-64
2021/01/21 14:01:56;;;;;;;;;;;30.30;31.20;;;;;;5075900;28;19908;-70
2021/01/21 14:04:22;;;;;;;;;;;30.30;31.50;;;;;;5085654;28;19944;-65
2021/01/21 14:06:47;;;;;;;;;;;30.30;30.80;;;;;;5076226;28;19912;-65
2021/01/21 14:09:13;;;;;;;;;;;30.10;30.70;;;;;;5095387;28;19915;-65
2021/01/21 14:11:38;;;;;;;;;;;30.10;30.90;;;;;;5095845;28;19916;-61